sensor_id;sensor_type;location;lat;lon;timestamp;P1;durP1;ratioP1;P2;durP2;ratioP2
60714;SDS011;46564;53.096;8.246;2022-09-09T00:04:33;20.40;;;11.05;;
60714;SDS011;46564;53.096;8.246;2022-09-09T00:20:19;20.40;;;11.50;;
60714;SDS011;46564;53.096;8.246;2022-09-09T00:25:29;20.67;;;10.38;;
60714;SDS011;46564;53.096;8.246;2022-09-09T00:30:35;20.92;;;11.38;;
60714;SDS011;46564;53.096;8.246;2022-09-09T00:35:40;18.25;;;11.48;;
60714;SDS011;46564;53.096;8.246;2022-09-09T00:41:02;20.33;;;10.60;;
60714;SDS011;46564;53.096;8.246;2022-09-09T00:57:12;20.40;;;11.40;;
60714;SDS011;46564;53.096;8.246;2022-09-09T01:02:16;18.55;;;11.52;;
60714;SDS011;46564;53.096;8.246;2022-09-09T01:07:30;18.55;;;10.65;;
60714;SDS011;46564;53.096;8.246;2022-09-09T01:12:40;18.90;;;11.45;;
60714;SDS011;46564;53.096;8.246;2022-09-09T01:17:57;23.65;;;10.93;;
60714;SDS011;46564;53.096;8.246;2022-09-09T01:23:28;25.27;;;11.75;;
60714;SDS011;46564;53.096;8.246;2022-09-09T01:28:59;19.35;;;9.90;;
60714;SDS011;46564;53.096;8.246;2022-09-09T01:34:11;17.25;;;10.35;;
60714;SDS011;46564;53.096;8.246;2022-09-09T01:39:14;20.08;;;10.77;;
60714;SDS011;46564;53.096;8.246;2022-09-09T01:44:17;22.02;;;10.52;;
60714;SDS011;46564;53.096;8.246;2022-09-09T01:49:20;16.90;;;9.80;;
60714;SDS011;46564;53.096;8.246;2022-09-09T01:54:25;18.13;;;10.18;;
60714;SDS011;46564;53.096;8.246;2022-09-09T01:59:37;17.40;;;9.60;;
60714;SDS011;46564;53.096;8.246;2022-09-09T02:05:07;16.05;;;9.88;;
60714;SDS011;46564;53.096;8.246;2022-09-09T02:15:30;16.98;;;9.70;;
60714;SDS011;46564;53.096;8.246;2022-09-09T02:20:38;18.17;;;10.85;;
60714;SDS011;46564;53.096;8.246;2022-09-09T02:25:40;17.17;;;10.10;;
60714;SDS011;46564;53.096;8.246;2022-09-09T02:30:52;22.23;;;10.05;;
60714;SDS011;46564;53.096;8.246;2022-09-09T02:36:02;19.00;;;10.13;;
60714;SDS011;46564;53.096;8.246;2022-09-09T02:41:08;17.20;;;9.63;;
60714;SDS011;46564;53.096;8.246;2022-09-09T02:51:40;15.57;;;9.23;;
60714;SDS011;46564;53.096;8.246;2022-09-09T02:56:52;16.25;;;9.43;;
60714;SDS011;46564;53.096;8.246;2022-09-09T03:02:07;18.63;;;9.13;;
60714;SDS011;46564;53.096;8.246;2022-09-09T03:07:12;13.23;;;8.10;;
60714;SDS011;46564;53.096;8.246;2022-09-09T03:12:15;17.98;;;8.93;;
60714;SDS011;46564;53.096;8.246;2022-09-09T03:17:17;17.23;;;8.50;;
60714;SDS011;46564;53.096;8.246;2022-09-09T03:22:25;14.48;;;8.65;;
60714;SDS011;46564;53.096;8.246;2022-09-09T03:27:28;17.67;;;8.70;;
60714;SDS011;46564;53.096;8.246;2022-09-09T03:32:32;14.23;;;8.70;;
60714;SDS011;46564;53.096;8.246;2022-09-09T03:37:33;15.65;;;8.30;;
60714;SDS011;46564;53.096;8.246;2022-09-09T03:42:35;14.70;;;9.10;;
60714;SDS011;46564;53.096;8.246;2022-09-09T03:47:38;21.95;;;8.85;;
60714;SDS011;46564;53.096;8.246;2022-09-09T03:52:41;20.80;;;8.68;;
60714;SDS011;46564;53.096;8.246;2022-09-09T03:57:50;17.25;;;8.57;;
60714;SDS011;46564;53.096;8.246;2022-09-09T04:02:53;20.73;;;8.68;;
60714;SDS011;46564;53.096;8.246;2022-09-09T04:07:56;14.18;;;8.20;;
60714;SDS011;46564;53.096;8.246;2022-09-09T04:12:58;13.55;;;6.93;;
60714;SDS011;46564;53.096;8.246;2022-09-09T04:18:01;19.55;;;7.68;;
60714;SDS011;46564;53.096;8.246;2022-09-09T04:23:03;14.85;;;7.00;;
60714;SDS011;46564;53.096;8.246;2022-09-09T04:28:04;14.27;;;7.03;;
60714;SDS011;46564;53.096;8.246;2022-09-09T04:33:06;16.45;;;7.57;;
60714;SDS011;46564;53.096;8.246;2022-09-09T04:38:09;14.73;;;7.63;;
60714;SDS011;46564;53.096;8.246;2022-09-09T04:43:11;13.75;;;6.90;;
60714;SDS011;46564;53.096;8.246;2022-09-09T04:48:16;12.45;;;6.95;;
60714;SDS011;46564;53.096;8.246;2022-09-09T04:53:18;12.98;;;6.30;;
60714;SDS011;46564;53.096;8.246;2022-09-09T04:58:20;16.38;;;7.30;;
60714;SDS011;46564;53.096;8.246;2022-09-09T05:03:23;13.10;;;6.47;;
60714;SDS011;46564;53.096;8.246;2022-09-09T05:08:25;19.38;;;6.75;;
60714;SDS011;46564;53.096;8.246;2022-09-09T05:13:27;16.10;;;6.90;;
60714;SDS011;46564;53.096;8.246;2022-09-09T05:18:29;15.38;;;6.43;;
60714;SDS011;46564;53.096;8.246;2022-09-09T05:23:31;13.45;;;6.15;;
60714;SDS011;46564;53.096;8.246;2022-09-09T05:28:34;12.48;;;7.00;;
60714;SDS011;46564;53.096;8.246;2022-09-09T05:33:38;12.90;;;6.38;;
60714;SDS011;46564;53.096;8.246;2022-09-09T05:38:42;12.70;;;6.57;;
60714;SDS011;46564;53.096;8.246;2022-09-09T05:43:45;12.55;;;6.72;;
60714;SDS011;46564;53.096;8.246;2022-09-09T05:48:49;13.82;;;6.85;;
60714;SDS011;46564;53.096;8.246;2022-09-09T05:53:54;15.15;;;6.82;;
60714;SDS011;46564;53.096;8.246;2022-09-09T05:58:57;16.23;;;8.45;;
60714;SDS011;46564;53.096;8.246;2022-09-09T06:04:01;15.35;;;6.78;;
60714;SDS011;46564;53.096;8.246;2022-09-09T06:09:06;13.57;;;6.35;;
60714;SDS011;46564;53.096;8.246;2022-09-09T06:14:12;13.18;;;6.43;;
60714;SDS011;46564;53.096;8.246;2022-09-09T06:19:14;12.05;;;6.60;;
60714;SDS011;46564;53.096;8.246;2022-09-09T06:24:16;14.70;;;6.50;;
60714;SDS011;46564;53.096;8.246;2022-09-09T06:29:20;14.13;;;6.93;;
60714;SDS011;46564;53.096;8.246;2022-09-09T06:34:22;14.13;;;6.45;;
60714;SDS011;46564;53.096;8.246;2022-09-09T06:39:28;16.70;;;7.03;;
60714;SDS011;46564;53.096;8.246;2022-09-09T06:44:30;13.45;;;6.45;;
60714;SDS011;46564;53.096;8.246;2022-09-09T06:49:36;12.05;;;6.10;;
60714;SDS011;46564;53.096;8.246;2022-09-09T06:54:42;14.70;;;6.38;;
60714;SDS011;46564;53.096;8.246;2022-09-09T06:59:44;10.30;;;5.57;;
60714;SDS011;46564;53.096;8.246;2022-09-09T07:04:45;15.07;;;5.07;;
60714;SDS011;46564;53.096;8.246;2022-09-09T07:09:48;12.68;;;5.30;;
60714;SDS011;46564;53.096;8.246;2022-09-09T07:14:50;8.48;;;4.18;;
60714;SDS011;46564;53.096;8.246;2022-09-09T07:25:13;8.85;;;5.00;;
60714;SDS011;46564;53.096;8.246;2022-09-09T07:30:16;11.80;;;5.18;;
60714;SDS011;46564;53.096;8.246;2022-09-09T07:35:26;9.13;;;4.57;;
60714;SDS011;46564;53.096;8.246;2022-09-09T07:40:28;15.32;;;5.03;;
60714;SDS011;46564;53.096;8.246;2022-09-09T07:45:33;13.55;;;5.03;;
60714;SDS011;46564;53.096;8.246;2022-09-09T07:50:35;10.85;;;4.80;;
60714;SDS011;46564;53.096;8.246;2022-09-09T07:55:37;10.32;;;4.53;;
60714;SDS011;46564;53.096;8.246;2022-09-09T08:00:40;9.60;;;4.10;;
60714;SDS011;46564;53.096;8.246;2022-09-09T08:05:45;9.77;;;4.20;;
60714;SDS011;46564;53.096;8.246;2022-09-09T08:10:46;10.38;;;4.18;;
60714;SDS011;46564;53.096;8.246;2022-09-09T08:15:48;12.73;;;3.78;;
60714;SDS011;46564;53.096;8.246;2022-09-09T08:20:52;6.65;;;3.35;;
60714;SDS011;46564;53.096;8.246;2022-09-09T08:25:54;8.20;;;3.28;;
60714;SDS011;46564;53.096;8.246;2022-09-09T08:30:56;8.93;;;3.35;;
60714;SDS011;46564;53.096;8.246;2022-09-09T08:36:05;5.90;;;2.83;;
60714;SDS011;46564;53.096;8.246;2022-09-09T08:46:47;8.13;;;2.60;;
60714;SDS011;46564;53.096;8.246;2022-09-09T08:51:58;8.35;;;2.75;;
60714;SDS011;46564;53.096;8.246;2022-09-09T08:57:01;6.32;;;3.00;;
60714;SDS011;46564;53.096;8.246;2022-09-09T09:02:21;8.52;;;2.47;;
60714;SDS011;46564;53.096;8.246;2022-09-09T09:12:57;6.15;;;2.70;;
60714;SDS011;46564;53.096;8.246;2022-09-09T09:17:59;9.05;;;2.53;;
60714;SDS011;46564;53.096;8.246;2022-09-09T09:23:01;8.18;;;2.03;;
60714;SDS011;46564;53.096;8.246;2022-09-09T09:28:20;8.35;;;2.75;;
60714;SDS011;46564;53.096;8.246;2022-09-09T09:33:35;5.65;;;2.03;;
60714;SDS011;46564;53.096;8.246;2022-09-09T09:39:04;8.80;;;2.40;;
60714;SDS011;46564;53.096;8.246;2022-09-09T09:44:28;7.30;;;2.10;;
60714;SDS011;46564;53.096;8.246;2022-09-09T09:49:59;6.35;;;2.10;;
60714;SDS011;46564;53.096;8.246;2022-09-09T09:55:11;5.25;;;2.00;;
60714;SDS011;46564;53.096;8.246;2022-09-09T10:00:20;5.28;;;2.00;;
60714;SDS011;46564;53.096;8.246;2022-09-09T10:05:44;6.65;;;1.80;;
60714;SDS011;46564;53.096;8.246;2022-09-09T10:16:23;10.80;;;2.40;;
60714;SDS011;46564;53.096;8.246;2022-09-09T10:37:58;6.90;;;2.00;;
60714;SDS011;46564;53.096;8.246;2022-09-09T10:43:11;9.23;;;2.05;;
60714;SDS011;46564;53.096;8.246;2022-09-09T10:48:35;7.13;;;2.00;;
60714;SDS011;46564;53.096;8.246;2022-09-09T10:59:28;7.18;;;2.25;;
60714;SDS011;46564;53.096;8.246;2022-09-09T11:04:40;7.75;;;2.13;;
60714;SDS011;46564;53.096;8.246;2022-09-09T11:09:47;10.18;;;2.78;;
60714;SDS011;46564;53.096;8.246;2022-09-09T11:15:06;10.25;;;3.13;;
60714;SDS011;46564;53.096;8.246;2022-09-09T11:20:15;10.80;;;2.92;;
60714;SDS011;46564;53.096;8.246;2022-09-09T11:25:18;9.82;;;2.97;;
60714;SDS011;46564;53.096;8.246;2022-09-09T11:41:44;7.75;;;2.33;;
60714;SDS011;46564;53.096;8.246;2022-09-09T11:46:46;10.32;;;3.15;;
60714;SDS011;46564;53.096;8.246;2022-09-09T11:51:53;15.73;;;2.80;;
60714;SDS011;46564;53.096;8.246;2022-09-09T11:56:55;9.52;;;3.10;;
60714;SDS011;46564;53.096;8.246;2022-09-09T12:02:02;14.90;;;3.72;;
60714;SDS011;46564;53.096;8.246;2022-09-09T12:22:23;10.93;;;3.38;;
60714;SDS011;46564;53.096;8.246;2022-09-09T12:27:39;7.95;;;3.20;;
60714;SDS011;46564;53.096;8.246;2022-09-09T12:33:06;12.63;;;3.65;;
60714;SDS011;46564;53.096;8.246;2022-09-09T12:38:14;12.40;;;4.57;;
60714;SDS011;46564;53.096;8.246;2022-09-09T12:43:22;10.65;;;3.88;;
60714;SDS011;46564;53.096;8.246;2022-09-09T12:48:33;8.25;;;4.10;;
60714;SDS011;46564;53.096;8.246;2022-09-09T12:53:38;12.18;;;3.92;;
60714;SDS011;46564;53.096;8.246;2022-09-09T12:58:44;19.05;;;4.22;;
60714;SDS011;46564;53.096;8.246;2022-09-09T13:03:48;10.25;;;4.05;;
60714;SDS011;46564;53.096;8.246;2022-09-09T13:08:51;11.52;;;4.30;;
60714;SDS011;46564;53.096;8.246;2022-09-09T13:13:55;13.55;;;4.57;;
60714;SDS011;46564;53.096;8.246;2022-09-09T13:19:06;12.57;;;4.60;;
60714;SDS011;46564;53.096;8.246;2022-09-09T13:29:34;10.13;;;4.55;;
60714;SDS011;46564;53.096;8.246;2022-09-09T13:34:35;12.45;;;4.30;;
60714;SDS011;46564;53.096;8.246;2022-09-09T13:39:37;10.35;;;4.15;;
60714;SDS011;46564;53.096;8.246;2022-09-09T13:44:39;9.13;;;3.75;;
60714;SDS011;46564;53.096;8.246;2022-09-09T13:49:42;7.13;;;2.85;;
60714;SDS011;46564;53.096;8.246;2022-09-09T13:54:50;9.20;;;3.60;;
60714;SDS011;46564;53.096;8.246;2022-09-09T13:59:53;7.93;;;2.83;;
60714;SDS011;46564;53.096;8.246;2022-09-09T14:05:06;5.57;;;2.70;;
60714;SDS011;46564;53.096;8.246;2022-09-09T14:10:08;9.73;;;2.90;;
60714;SDS011;46564;53.096;8.246;2022-09-09T14:15:11;7.85;;;3.38;;
60714;SDS011;46564;53.096;8.246;2022-09-09T14:20:13;5.13;;;2.90;;
60714;SDS011;46564;53.096;8.246;2022-09-09T14:25:16;10.25;;;2.75;;
60714;SDS011;46564;53.096;8.246;2022-09-09T14:30:18;5.85;;;2.92;;
60714;SDS011;46564;53.096;8.246;2022-09-09T14:35:19;11.10;;;2.92;;
60714;SDS011;46564;53.096;8.246;2022-09-09T14:40:21;8.65;;;2.97;;
60714;SDS011;46564;53.096;8.246;2022-09-09T14:45:23;7.75;;;2.80;;
60714;SDS011;46564;53.096;8.246;2022-09-09T14:50:25;6.20;;;2.88;;
60714;SDS011;46564;53.096;8.246;2022-09-09T14:55:27;6.25;;;3.03;;
60714;SDS011;46564;53.096;8.246;2022-09-09T15:00:30;7.22;;;2.80;;
60714;SDS011;46564;53.096;8.246;2022-09-09T15:05:32;9.40;;;2.63;;
60714;SDS011;46564;53.096;8.246;2022-09-09T15:10:34;11.68;;;3.10;;
60714;SDS011;46564;53.096;8.246;2022-09-09T15:15:35;8.80;;;2.67;;
60714;SDS011;46564;53.096;8.246;2022-09-09T15:20:37;4.57;;;1.92;;
60714;SDS011;46564;53.096;8.246;2022-09-09T15:25:53;4.43;;;1.90;;
60714;SDS011;46564;53.096;8.246;2022-09-09T15:30:56;3.30;;;1.40;;
60714;SDS011;46564;53.096;8.246;2022-09-09T15:35:58;3.88;;;1.58;;
60714;SDS011;46564;53.096;8.246;2022-09-09T15:40:59;5.80;;;1.70;;
60714;SDS011;46564;53.096;8.246;2022-09-09T15:46:09;3.13;;;1.40;;
60714;SDS011;46564;53.096;8.246;2022-09-09T15:51:33;6.07;;;2.13;;
60714;SDS011;46564;53.096;8.246;2022-09-09T15:56:44;3.20;;;1.80;;
60714;SDS011;46564;53.096;8.246;2022-09-09T16:01:47;5.10;;;2.17;;
60714;SDS011;46564;53.096;8.246;2022-09-09T16:06:53;4.13;;;2.08;;
60714;SDS011;46564;53.096;8.246;2022-09-09T16:11:57;5.18;;;2.58;;
60714;SDS011;46564;53.096;8.246;2022-09-09T16:17:00;6.43;;;2.00;;
60714;SDS011;46564;53.096;8.246;2022-09-09T16:22:02;6.30;;;2.40;;
60714;SDS011;46564;53.096;8.246;2022-09-09T16:27:05;8.77;;;2.13;;
60714;SDS011;46564;53.096;8.246;2022-09-09T16:32:07;6.10;;;2.25;;
60714;SDS011;46564;53.096;8.246;2022-09-09T16:37:09;6.22;;;2.20;;
60714;SDS011;46564;53.096;8.246;2022-09-09T16:42:12;9.30;;;2.15;;
60714;SDS011;46564;53.096;8.246;2022-09-09T16:47:13;6.82;;;2.30;;
60714;SDS011;46564;53.096;8.246;2022-09-09T16:52:15;6.93;;;3.05;;
60714;SDS011;46564;53.096;8.246;2022-09-09T16:57:20;9.93;;;2.67;;
60714;SDS011;46564;53.096;8.246;2022-09-09T17:02:22;4.80;;;2.47;;
60714;SDS011;46564;53.096;8.246;2022-09-09T17:07:25;12.27;;;3.58;;
60714;SDS011;46564;53.096;8.246;2022-09-09T17:12:27;6.95;;;2.88;;
60714;SDS011;46564;53.096;8.246;2022-09-09T17:17:28;5.97;;;2.15;;
60714;SDS011;46564;53.096;8.246;2022-09-09T17:22:32;7.05;;;2.80;;
60714;SDS011;46564;53.096;8.246;2022-09-09T17:27:34;4.30;;;2.08;;
60714;SDS011;46564;53.096;8.246;2022-09-09T17:32:35;8.95;;;2.72;;
60714;SDS011;46564;53.096;8.246;2022-09-09T17:37:37;8.10;;;2.80;;
60714;SDS011;46564;53.096;8.246;2022-09-09T17:42:39;5.55;;;2.65;;
60714;SDS011;46564;53.096;8.246;2022-09-09T17:47:41;5.15;;;2.47;;
60714;SDS011;46564;53.096;8.246;2022-09-09T17:52:43;5.00;;;2.08;;
60714;SDS011;46564;53.096;8.246;2022-09-09T17:57:45;7.15;;;1.95;;
60714;SDS011;46564;53.096;8.246;2022-09-09T18:02:47;6.53;;;2.03;;
60714;SDS011;46564;53.096;8.246;2022-09-09T18:07:48;5.97;;;1.90;;
60714;SDS011;46564;53.096;8.246;2022-09-09T18:12:50;7.40;;;2.20;;
60714;SDS011;46564;53.096;8.246;2022-09-09T18:17:51;5.82;;;2.60;;
60714;SDS011;46564;53.096;8.246;2022-09-09T18:22:53;6.60;;;2.50;;
60714;SDS011;46564;53.096;8.246;2022-09-09T18:27:54;5.25;;;2.05;;
60714;SDS011;46564;53.096;8.246;2022-09-09T18:32:57;6.22;;;2.20;;
60714;SDS011;46564;53.096;8.246;2022-09-09T18:37:58;4.30;;;2.17;;
60714;SDS011;46564;53.096;8.246;2022-09-09T18:43:00;4.40;;;2.05;;
60714;SDS011;46564;53.096;8.246;2022-09-09T18:48:01;3.45;;;2.10;;
60714;SDS011;46564;53.096;8.246;2022-09-09T18:53:03;5.45;;;2.05;;
60714;SDS011;46564;53.096;8.246;2022-09-09T18:58:05;3.80;;;2.00;;
60714;SDS011;46564;53.096;8.246;2022-09-09T19:03:06;7.60;;;2.33;;
60714;SDS011;46564;53.096;8.246;2022-09-09T19:08:08;3.88;;;2.30;;
60714;SDS011;46564;53.096;8.246;2022-09-09T19:13:09;3.60;;;2.15;;
60714;SDS011;46564;53.096;8.246;2022-09-09T19:18:11;4.35;;;2.20;;
60714;SDS011;46564;53.096;8.246;2022-09-09T19:23:12;5.90;;;2.40;;
60714;SDS011;46564;53.096;8.246;2022-09-09T19:28:14;5.47;;;2.58;;
60714;SDS011;46564;53.096;8.246;2022-09-09T19:33:15;7.35;;;2.47;;
60714;SDS011;46564;53.096;8.246;2022-09-09T19:38:17;5.05;;;2.85;;
60714;SDS011;46564;53.096;8.246;2022-09-09T19:43:19;6.78;;;3.00;;
60714;SDS011;46564;53.096;8.246;2022-09-09T19:48:20;6.43;;;3.40;;
60714;SDS011;46564;53.096;8.246;2022-09-09T19:53:22;6.57;;;3.20;;
60714;SDS011;46564;53.096;8.246;2022-09-09T19:58:23;6.78;;;3.03;;
60714;SDS011;46564;53.096;8.246;2022-09-09T20:03:25;7.45;;;3.35;;
60714;SDS011;46564;53.096;8.246;2022-09-09T20:08:27;8.88;;;3.25;;
60714;SDS011;46564;53.096;8.246;2022-09-09T20:13:29;6.35;;;3.55;;
60714;SDS011;46564;53.096;8.246;2022-09-09T20:18:32;9.23;;;3.55;;
60714;SDS011;46564;53.096;8.246;2022-09-09T20:23:36;9.43;;;3.70;;
60714;SDS011;46564;53.096;8.246;2022-09-09T20:28:39;8.52;;;3.75;;
60714;SDS011;46564;53.096;8.246;2022-09-09T20:33:42;7.20;;;3.80;;
60714;SDS011;46564;53.096;8.246;2022-09-09T20:38:45;9.20;;;4.30;;
60714;SDS011;46564;53.096;8.246;2022-09-09T20:43:56;6.75;;;3.75;;
60714;SDS011;46564;53.096;8.246;2022-09-09T20:49:03;7.78;;;4.35;;
60714;SDS011;46564;53.096;8.246;2022-09-09T20:54:08;9.52;;;4.60;;
60714;SDS011;46564;53.096;8.246;2022-09-09T20:59:16;9.18;;;4.63;;
60714;SDS011;46564;53.096;8.246;2022-09-09T21:04:20;9.40;;;4.10;;
60714;SDS011;46564;53.096;8.246;2022-09-09T21:09:23;10.27;;;4.78;;
60714;SDS011;46564;53.096;8.246;2022-09-09T21:14:25;9.68;;;4.70;;
60714;SDS011;46564;53.096;8.246;2022-09-09T21:19:27;10.82;;;4.90;;
60714;SDS011;46564;53.096;8.246;2022-09-09T21:24:29;9.63;;;4.45;;
60714;SDS011;46564;53.096;8.246;2022-09-09T21:29:31;12.45;;;4.63;;
60714;SDS011;46564;53.096;8.246;2022-09-09T21:34:33;11.27;;;4.90;;
60714;SDS011;46564;53.096;8.246;2022-09-09T21:39:35;13.93;;;4.90;;
60714;SDS011;46564;53.096;8.246;2022-09-09T21:44:36;10.02;;;4.47;;
60714;SDS011;46564;53.096;8.246;2022-09-09T21:49:38;8.05;;;4.63;;
60714;SDS011;46564;53.096;8.246;2022-09-09T21:54:39;9.02;;;4.82;;
60714;SDS011;46564;53.096;8.246;2022-09-09T21:59:43;9.27;;;4.88;;
60714;SDS011;46564;53.096;8.246;2022-09-09T22:04:45;11.63;;;5.13;;
60714;SDS011;46564;53.096;8.246;2022-09-09T22:09:46;10.65;;;4.30;;
60714;SDS011;46564;53.096;8.246;2022-09-09T22:14:48;9.82;;;4.97;;
60714;SDS011;46564;53.096;8.246;2022-09-09T22:19:50;10.40;;;5.47;;
60714;SDS011;46564;53.096;8.246;2022-09-09T22:24:51;10.85;;;4.90;;
60714;SDS011;46564;53.096;8.246;2022-09-09T22:29:53;12.75;;;4.68;;
60714;SDS011;46564;53.096;8.246;2022-09-09T22:34:55;9.10;;;4.07;;
60714;SDS011;46564;53.096;8.246;2022-09-09T22:39:57;10.65;;;3.92;;
60714;SDS011;46564;53.096;8.246;2022-09-09T22:44:59;7.10;;;4.03;;
60714;SDS011;46564;53.096;8.246;2022-09-09T22:50:00;5.85;;;3.67;;
60714;SDS011;46564;53.096;8.246;2022-09-09T22:55:02;9.27;;;3.80;;
60714;SDS011;46564;53.096;8.246;2022-09-09T23:00:04;7.85;;;3.65;;
60714;SDS011;46564;53.096;8.246;2022-09-09T23:05:09;7.35;;;3.67;;
60714;SDS011;46564;53.096;8.246;2022-09-09T23:10:10;6.15;;;3.38;;
60714;SDS011;46564;53.096;8.246;2022-09-09T23:15:12;8.38;;;3.40;;
60714;SDS011;46564;53.096;8.246;2022-09-09T23:20:14;8.48;;;3.75;;
60714;SDS011;46564;53.096;8.246;2022-09-09T23:25:15;10.55;;;3.67;;
60714;SDS011;46564;53.096;8.246;2022-09-09T23:30:17;13.85;;;3.58;;
60714;SDS011;46564;53.096;8.246;2022-09-09T23:35:19;5.78;;;3.28;;
60714;SDS011;46564;53.096;8.246;2022-09-09T23:40:20;6.03;;;3.35;;
60714;SDS011;46564;53.096;8.246;2022-09-09T23:45:24;8.57;;;3.50;;
60714;SDS011;46564;53.096;8.246;2022-09-09T23:50:25;8.02;;;3.83;;
60714;SDS011;46564;53.096;8.246;2022-09-09T23:55:27;10.00;;;5.00;;
